createdAt,value
2017-12-04T00:00:23.373Z,5.62
2017-12-04T00:01:23.374Z,5.61
2017-12-04T00:02:23.387Z,5.62
2017-12-04T00:03:23.398Z,5.61
2017-12-04T00:04:23.140Z,5.59
2017-12-04T00:05:23.416Z,5.64
2017-12-04T00:06:23.427Z,5.57
2017-12-04T00:07:23.501Z,5.61
2017-12-04T00:08:23.181Z,5.61
2017-12-04T00:09:23.466Z,5.59
2017-12-04T00:10:23.202Z,5.59
2017-12-04T00:11:23.222Z,5.66
2017-12-04T00:12:23.494Z,5.64
2017-12-04T00:13:23.512Z,5.69
2017-12-04T00:14:23.516Z,5.62
2017-12-04T00:15:23.524Z,5.62
2017-12-04T00:16:23.545Z,5.59
2017-12-04T00:17:23.561Z,5.62
2017-12-04T00:18:23.606Z,5.59
2017-12-04T00:19:23.570Z,5.59
2017-12-04T00:20:23.576Z,5.65
2017-12-04T00:21:23.594Z,5.59
2017-12-04T00:22:23.614Z,5.65
2017-12-04T00:23:23.351Z,5.72
2017-12-04T00:24:23.359Z,5.68
2017-12-04T00:25:23.370Z,5.65
2017-12-04T00:26:23.641Z,5.64
2017-12-04T00:27:23.663Z,5.72
2017-12-04T00:28:23.670Z,5.72
2017-12-04T00:29:23.405Z,5.68
2017-12-04T00:30:23.696Z,5.64
2017-12-04T00:31:23.700Z,5.71
2017-12-04T00:32:23.712Z,5.62
2017-12-04T00:33:23.730Z,5.69
2017-12-04T00:34:23.730Z,5.65
2017-12-04T00:35:23.750Z,5.65
2017-12-04T00:36:23.488Z,5.68
2017-12-04T00:37:23.765Z,5.66
2017-12-04T00:38:23.775Z,5.64
2017-12-04T00:39:23.793Z,5.64
2017-12-04T00:40:23.526Z,5.62
2017-12-04T00:41:23.542Z,5.68
2017-12-04T00:42:23.554Z,5.65
2017-12-04T00:43:23.828Z,5.66
2017-12-04T00:44:23.579Z,5.65
2017-12-04T00:45:23.859Z,5.65
2017-12-04T00:46:23.876Z,5.66
2017-12-04T00:47:23.874Z,5.73
2017-12-04T00:48:23.883Z,5.62
2017-12-04T00:49:23.893Z,5.64
2017-12-04T00:50:23.630Z,5.69
2017-12-04T00:51:23.965Z,5.64
2017-12-04T00:52:23.654Z,5.69
2017-12-04T00:53:23.935Z,5.71
2017-12-04T00:54:23.945Z,5.69
2017-12-04T00:55:23.962Z,5.69
2017-12-04T00:56:23.964Z,5.64
2017-12-04T00:57:23.976Z,5.68
2017-12-04T00:58:23.989Z,5.73
2017-12-04T00:59:24.002Z,5.68
2017-12-04T01:00:24.008Z,5.68
2017-12-04T01:01:23.756Z,5.64
2017-12-04T01:02:23.768Z,5.79
2017-12-04T01:03:23.775Z,5.69
2017-12-04T01:04:23.791Z,5.65
2017-12-04T01:05:24.059Z,5.73
2017-12-04T01:06:24.081Z,5.69
2017-12-04T01:07:24.085Z,5.62
2017-12-04T01:08:24.106Z,5.71
2017-12-04T01:09:23.845Z,5.71
2017-12-04T01:10:23.852Z,5.61
2017-12-04T01:11:24.131Z,5.66
2017-12-04T01:12:24.138Z,5.69
2017-12-04T01:13:24.146Z,5.62
2017-12-04T01:14:24.161Z,5.66
2017-12-04T01:15:24.218Z,5.64
2017-12-04T01:16:23.651Z,5.76
2017-12-04T01:17:24.192Z,5.72
2017-12-04T01:18:24.211Z,5.68
2017-12-04T01:19:24.210Z,5.68
2017-12-04T01:20:24.217Z,5.61
2017-12-04T01:21:24.229Z,5.66
2017-12-04T01:22:24.249Z,5.72
2017-12-04T01:23:24.256Z,5.62
2017-12-04T01:24:24.264Z,5.62
2017-12-04T01:25:24.011Z,5.68
2017-12-04T01:26:24.288Z,5.64
2017-12-04T01:27:24.028Z,5.65
2017-12-04T01:28:23.780Z,5.65
2017-12-04T01:29:24.052Z,5.66
2017-12-04T01:30:24.335Z,5.65
2017-12-04T01:31:24.343Z,5.69
2017-12-04T01:32:24.362Z,5.64
2017-12-04T01:33:24.365Z,5.65
2017-12-04T01:34:24.377Z,5.66
2017-12-04T01:35:24.395Z,5.65
2017-12-04T01:36:24.391Z,5.62
2017-12-04T01:37:24.143Z,5.68
2017-12-04T01:38:26.956Z,5.69
2017-12-04T01:39:24.164Z,5.71
2017-12-04T01:40:24.444Z,5.71
2017-12-04T01:41:24.461Z,5.62
2017-12-04T01:42:24.459Z,5.62
2017-12-04T01:43:24.473Z,5.66
2017-12-04T01:44:24.494Z,5.71
2017-12-04T01:45:24.492Z,5.64
2017-12-04T01:46:24.508Z,5.59
2017-12-04T01:47:24.516Z,5.66
2017-12-04T01:48:24.285Z,5.64
2017-12-04T01:49:24.546Z,5.69
2017-12-04T01:50:24.551Z,5.68
2017-12-04T01:51:24.564Z,5.66
2017-12-04T01:52:24.571Z,5.64
2017-12-04T01:53:24.318Z,5.66
2017-12-04T01:54:24.325Z,5.66
2017-12-04T01:55:24.605Z,5.72
2017-12-04T01:56:24.617Z,5.73
2017-12-04T01:57:24.622Z,5.76
2017-12-04T01:58:24.371Z,5.71
2017-12-04T01:59:24.380Z,5.71
2017-12-04T02:00:24.665Z,5.72
2017-12-04T02:01:24.679Z,5.73
2017-12-04T02:02:24.411Z,5.75
2017-12-04T02:03:24.701Z,5.68
2017-12-04T02:04:24.434Z,5.68
2017-12-04T02:05:24.710Z,5.72
2017-12-04T02:06:24.733Z,5.72
2017-12-04T02:07:24.466Z,5.73
2017-12-04T02:08:24.743Z,5.73
2017-12-04T02:09:24.494Z,5.76
2017-12-04T02:10:24.778Z,5.72
2017-12-04T02:11:24.779Z,5.66
2017-12-04T02:12:24.795Z,5.68
2017-12-04T02:13:24.800Z,5.76
2017-12-04T02:14:24.809Z,5.73
2017-12-04T02:15:24.554Z,5.76
2017-12-04T02:16:24.836Z,5.72
2017-12-04T02:17:24.840Z,5.76
2017-12-04T02:18:24.862Z,5.76
2017-12-04T02:19:24.904Z,5.71
2017-12-04T02:20:24.882Z,5.79
2017-12-04T02:21:24.889Z,5.75
2017-12-04T02:22:24.895Z,5.73
2017-12-04T02:23:24.637Z,5.75
2017-12-04T02:24:24.917Z,5.71
2017-12-04T02:25:24.663Z,5.71
2017-12-04T02:26:24.946Z,5.73
2017-12-04T02:27:24.682Z,5.71
2017-12-04T02:28:24.957Z,5.71
2017-12-04T02:29:25.024Z,5.69
2017-12-04T02:30:24.984Z,5.71
2017-12-04T02:31:25.093Z,5.69
2017-12-04T02:32:24.746Z,5.73
2017-12-04T02:33:24.748Z,5.69
2017-12-04T02:34:25.028Z,5.65
2017-12-04T02:35:25.033Z,5.68
2017-12-04T02:36:25.059Z,5.59
2017-12-04T02:37:25.069Z,5.61
2017-12-04T02:38:24.827Z,5.69
2017-12-04T02:39:25.109Z,5.73
2017-12-04T02:40:24.830Z,5.66
2017-12-04T02:41:25.099Z,5.64
2017-12-04T02:42:24.848Z,5.69
2017-12-04T02:43:25.129Z,5.72
2017-12-04T02:44:25.129Z,5.64
2017-12-04T02:45:25.409Z,5.71
2017-12-04T02:46:25.162Z,5.69
2017-12-04T02:47:25.172Z,5.71
2017-12-04T02:48:25.174Z,5.66
2017-12-04T02:49:25.187Z,5.68
2017-12-04T02:50:24.934Z,5.76
2017-12-04T02:51:25.211Z,5.68
2017-12-04T02:52:25.236Z,5.65
2017-12-04T02:53:24.968Z,5.69
2017-12-04T02:54:25.244Z,5.79
2017-12-04T02:55:24.986Z,5.68
2017-12-04T02:56:25.268Z,5.69
2017-12-04T02:57:25.278Z,5.64
2017-12-04T02:58:25.014Z,5.66
2017-12-04T02:59:25.029Z,5.73
2017-12-04T03:00:25.304Z,5.64
2017-12-04T03:01:25.366Z,5.65
2017-12-04T03:02:25.060Z,5.65
2017-12-04T03:03:25.338Z,5.66
2017-12-04T03:04:25.362Z,5.65
2017-12-04T03:05:25.092Z,5.71
2017-12-04T03:06:25.104Z,5.69
2017-12-04T03:07:25.381Z,5.65
2017-12-04T03:08:25.122Z,5.64
2017-12-04T03:09:25.446Z,5.69
2017-12-04T03:10:25.421Z,5.68
2017-12-04T03:11:25.426Z,5.71
2017-12-04T03:12:25.166Z,5.65
2017-12-04T03:13:25.447Z,5.62
2017-12-04T03:14:25.453Z,5.65
2017-12-04T03:15:25.466Z,5.65
2017-12-04T03:16:25.476Z,5.59
2017-12-04T03:17:24.952Z,5.61
2017-12-04T03:18:25.499Z,5.51
2017-12-04T03:19:25.514Z,5.51
2017-12-04T03:20:25.519Z,5.51
2017-12-04T03:21:25.533Z,5.57
2017-12-04T03:22:25.272Z,5.54
2017-12-04T03:23:25.554Z,5.51
2017-12-04T03:24:25.572Z,5.5
2017-12-04T03:25:25.580Z,5.46
2017-12-04T03:26:25.586Z,5.51
2017-12-04T03:27:25.328Z,5.5
2017-12-04T03:28:25.351Z,5.43
2017-12-04T03:29:25.622Z,5.47
2017-12-04T03:30:25.633Z,5.53
2017-12-04T03:31:25.653Z,5.47
2017-12-04T03:32:25.385Z,5.43
2017-12-04T03:33:25.656Z,5.47
2017-12-04T03:34:25.413Z,5.48
2017-12-04T03:35:25.420Z,5.48
2017-12-04T03:36:25.426Z,5.44
2017-12-04T03:37:25.437Z,5.43
2017-12-04T03:38:25.454Z,5.48
2017-12-04T03:39:25.724Z,5.54
2017-12-04T03:40:25.736Z,5.47
2017-12-04T03:41:25.747Z,5.51
2017-12-04T03:42:25.757Z,5.48
2017-12-04T03:43:25.764Z,5.53
2017-12-04T03:44:25.779Z,5.56
2017-12-04T03:45:25.520Z,5.53
2017-12-04T03:46:25.797Z,5.48
2017-12-04T03:47:25.814Z,5.5
2017-12-04T03:48:25.818Z,5.5
2017-12-04T03:49:25.835Z,5.59
2017-12-04T03:50:25.581Z,5.59
2017-12-04T03:51:25.863Z,5.59
2017-12-04T03:52:25.869Z,5.5
2017-12-04T03:53:25.880Z,5.47
2017-12-04T03:54:25.890Z,5.57
2017-12-04T03:55:25.633Z,5.48
2017-12-04T03:56:25.911Z,5.51
2017-12-04T03:57:25.647Z,5.54
2017-12-04T03:58:25.927Z,5.56
2017-12-04T03:59:25.942Z,5.47
2017-12-04T04:00:25.686Z,5.5
2017-12-04T04:01:25.959Z,5.47
2017-12-04T04:02:25.707Z,5.44
2017-12-04T04:03:25.980Z,5.43
2017-12-04T04:04:25.995Z,5.46
2017-12-04T04:05:26.000Z,5.47
2017-12-04T04:06:25.475Z,5.48
2017-12-04T04:07:26.027Z,5.47
2017-12-04T04:08:26.039Z,5.48
2017-12-04T04:09:25.779Z,5.43
2017-12-04T04:10:26.054Z,5.41
2017-12-04T04:11:26.065Z,5.43
2017-12-04T04:12:26.081Z,5.41
2017-12-04T04:13:26.089Z,5.48
2017-12-04T04:14:26.103Z,5.39
2017-12-04T04:15:25.848Z,5.46
2017-12-04T04:16:25.860Z,5.41
2017-12-04T04:17:25.868Z,5.5
2017-12-04T04:18:26.152Z,5.44
2017-12-04T04:19:26.149Z,5.47
2017-12-04T04:20:25.893Z,5.43
2017-12-04T04:21:26.174Z,5.41
2017-12-04T04:22:25.916Z,5.48
2017-12-04T04:23:26.205Z,5.47
2017-12-04T04:24:25.941Z,5.47
2017-12-04T04:25:25.952Z,5.46
2017-12-04T04:26:25.690Z,5.43
2017-12-04T04:27:26.239Z,5.39
2017-12-04T04:28:26.246Z,5.39
2017-12-04T04:29:26.263Z,5.35
2017-12-04T04:30:26.271Z,5.38
2017-12-04T04:31:25.745Z,5.44
2017-12-04T04:32:26.287Z,5.39
2017-12-04T04:33:26.298Z,5.44
2017-12-04T04:34:26.311Z,5.41
2017-12-04T04:35:26.335Z,5.43
2017-12-04T04:36:26.333Z,5.41
2017-12-04T04:37:26.341Z,5.43
2017-12-04T04:38:26.347Z,5.41
2017-12-04T04:39:26.366Z,5.41
2017-12-04T04:40:26.371Z,5.43
2017-12-04T04:41:26.118Z,5.43
2017-12-04T04:42:26.125Z,5.38
2017-12-04T04:43:26.138Z,5.39
2017-12-04T04:44:26.419Z,5.41
2017-12-04T04:45:26.423Z,5.46
2017-12-04T04:46:26.437Z,5.43
2017-12-04T04:47:26.182Z,5.43
2017-12-04T04:48:26.456Z,5.46
2017-12-04T04:49:26.475Z,5.43
2017-12-04T04:50:26.216Z,5.44
2017-12-04T04:51:26.493Z,5.41
2017-12-04T04:52:26.501Z,5.41
2017-12-04T04:53:26.512Z,5.46
2017-12-04T04:54:26.528Z,5.41
2017-12-04T04:55:26.275Z,5.44
2017-12-04T04:56:26.277Z,5.43
2017-12-04T04:57:26.290Z,5.41
2017-12-04T04:58:26.566Z,5.38
2017-12-04T04:59:26.572Z,5.46
2017-12-04T05:00:26.318Z,5.41
2017-12-04T05:01:26.599Z,5.39
2017-12-04T05:02:26.605Z,5.41
2017-12-04T05:03:26.350Z,5.41
2017-12-04T05:04:26.630Z,5.39
2017-12-04T05:05:26.376Z,5.46
2017-12-04T05:06:26.657Z,5.41
2017-12-04T05:07:26.394Z,5.44
2017-12-04T05:08:26.671Z,5.44
2017-12-04T05:09:26.685Z,5.38
2017-12-04T05:10:26.690Z,5.41
2017-12-04T05:11:26.701Z,5.41
2017-12-04T05:12:26.717Z,5.44
2017-12-04T05:13:26.723Z,5.44
2017-12-04T05:14:26.466Z,5.43
2017-12-04T05:15:26.479Z,5.35
2017-12-04T05:16:26.801Z,5.43
2017-12-04T05:17:26.765Z,5.5
2017-12-04T05:18:26.779Z,5.5
2017-12-04T05:19:26.251Z,5.44
2017-12-04T05:20:26.814Z,5.5
2017-12-04T05:21:26.815Z,5.43
2017-12-04T05:22:26.554Z,5.48
2017-12-04T05:23:26.560Z,5.43
2017-12-04T05:24:26.840Z,5.53
2017-12-04T05:25:26.851Z,5.53
2017-12-04T05:26:26.592Z,5.51
2017-12-04T05:27:26.874Z,5.53
2017-12-04T05:28:26.882Z,5.5
2017-12-04T05:29:26.895Z,5.51
2017-12-04T05:30:26.908Z,5.56
2017-12-04T05:31:26.649Z,5.5
2017-12-04T05:32:26.390Z,5.56
2017-12-04T05:33:26.936Z,5.5
2017-12-04T05:34:26.944Z,5.48
2017-12-04T05:35:26.957Z,5.59
2017-12-04T05:36:26.971Z,5.51
2017-12-04T05:37:26.981Z,5.5
2017-12-04T05:38:26.988Z,5.48
2017-12-04T05:39:26.993Z,5.61
2017-12-04T05:40:27.006Z,5.56
2017-12-04T05:41:27.026Z,5.61
2017-12-04T05:42:27.030Z,5.51
2017-12-04T05:43:26.796Z,5.59
2017-12-04T05:44:27.102Z,5.59
2017-12-04T05:45:27.062Z,5.61
2017-12-04T05:46:27.074Z,5.51
2017-12-04T05:47:27.088Z,5.61
2017-12-04T05:48:26.828Z,5.48
2017-12-04T05:49:26.849Z,5.62
2017-12-04T05:50:26.845Z,5.61
2017-12-04T05:51:26.860Z,5.54
2017-12-04T05:52:27.135Z,5.59
2017-12-04T05:53:27.145Z,5.62
2017-12-04T05:54:27.163Z,5.59
2017-12-04T05:55:27.170Z,5.68
2017-12-04T05:56:27.181Z,5.64
2017-12-04T05:57:27.219Z,5.62
2017-12-04T05:58:26.930Z,5.62
2017-12-04T05:59:27.219Z,5.71
2017-12-04T06:00:27.220Z,5.65
2017-12-04T06:01:27.230Z,5.66
2017-12-04T06:02:26.707Z,5.68
2017-12-04T06:03:27.254Z,5.59
2017-12-04T06:04:26.728Z,5.65
2017-12-04T06:05:27.388Z,5.61
2017-12-04T06:06:27.021Z,5.76
2017-12-04T06:07:27.295Z,5.72
2017-12-04T06:08:27.309Z,5.79
2017-12-04T06:09:27.317Z,5.79
2017-12-04T06:10:27.328Z,5.79
2017-12-04T06:11:27.356Z,5.75
2017-12-04T06:12:27.346Z,5.79
2017-12-04T06:13:27.358Z,5.79
2017-12-04T06:14:27.373Z,5.79
2017-12-04T06:15:27.110Z,5.75
2017-12-04T06:16:27.121Z,5.8
2017-12-04T06:17:27.134Z,5.76
2017-12-04T06:18:27.416Z,5.8
2017-12-04T06:19:27.423Z,5.79
2017-12-04T06:20:27.433Z,5.79
2017-12-04T06:21:27.442Z,5.83
2017-12-04T06:22:27.454Z,5.86
2017-12-04T06:23:27.471Z,5.84
2017-12-04T06:24:27.482Z,5.87
2017-12-04T06:25:27.222Z,5.87
2017-12-04T06:26:27.502Z,5.87
2017-12-04T06:27:27.508Z,5.89
2017-12-04T06:28:27.523Z,5.9
2017-12-04T06:29:27.266Z,5.9
2017-12-04T06:30:27.543Z,5.87
2017-12-04T06:31:27.644Z,5.9
2017-12-04T06:32:27.560Z,5.89
2017-12-04T06:33:27.572Z,5.97
2017-12-04T06:34:27.320Z,5.93
2017-12-04T06:35:27.592Z,5.91
2017-12-04T06:36:27.347Z,5.89
2017-12-04T06:37:27.350Z,5.93
2017-12-04T06:38:27.357Z,5.86
2017-12-04T06:39:27.370Z,5.9
2017-12-04T06:40:27.652Z,5.9
2017-12-04T06:41:27.667Z,5.94
2017-12-04T06:42:27.403Z,5.99
2017-12-04T06:43:27.415Z,5.94
2017-12-04T06:44:27.427Z,5.94
2017-12-04T06:45:27.700Z,5.93
2017-12-04T06:46:27.444Z,5.94
2017-12-04T06:47:27.453Z,5.94
2017-12-04T06:48:27.772Z,5.98
2017-12-04T06:49:27.210Z,5.91
2017-12-04T06:50:27.488Z,5.99
2017-12-04T06:51:27.769Z,5.99
2017-12-04T06:52:27.780Z,5.99
2017-12-04T06:53:27.251Z,5.99
2017-12-04T06:54:27.798Z,6.01
2017-12-04T06:55:27.808Z,6.01
2017-12-04T06:56:27.818Z,6.02
2017-12-04T06:57:27.562Z,6.01
2017-12-04T06:58:27.842Z,5.99
2017-12-04T06:59:27.590Z,5.98
2017-12-04T07:00:27.599Z,6.07
2017-12-04T07:01:27.604Z,5.98
2017-12-04T07:02:27.618Z,6.02
2017-12-04T07:03:27.639Z,6.04
2017-12-04T07:04:27.915Z,6.02
2017-12-04T07:05:27.776Z,6.01
2017-12-04T07:06:27.956Z,6.01
2017-12-04T07:07:27.674Z,5.99
2017-12-04T07:08:27.418Z,6.01
2017-12-04T07:09:27.960Z,5.98
2017-12-04T07:10:27.707Z,5.87
2017-12-04T07:11:27.714Z,5.99
2017-12-04T07:12:27.995Z,6.04
2017-12-04T07:13:27.740Z,5.99
2017-12-04T07:14:28.069Z,5.87
2017-12-04T07:15:28.030Z,5.98
2017-12-04T07:16:28.039Z,5.9
2017-12-04T07:17:28.054Z,5.94
2017-12-04T07:18:28.060Z,5.94
2017-12-04T07:19:28.105Z,5.93
2017-12-04T07:20:28.083Z,5.99
2017-12-04T07:21:28.137Z,5.89
2017-12-04T07:22:28.138Z,5.93
2017-12-04T07:23:28.113Z,5.99
2017-12-04T07:24:28.125Z,5.93
2017-12-04T07:25:27.868Z,5.9
2017-12-04T07:26:28.145Z,5.99
2017-12-04T07:27:28.194Z,5.97
2017-12-04T07:28:28.171Z,5.89
2017-12-04T07:29:27.643Z,5.98
2017-12-04T07:30:28.195Z,5.99
2017-12-04T07:31:28.197Z,6.01
2017-12-04T07:32:28.221Z,5.97
2017-12-04T07:33:28.241Z,5.99
2017-12-04T07:34:28.244Z,5.94
2017-12-04T07:35:28.243Z,5.97
2017-12-04T07:36:28.264Z,5.97
2017-12-04T07:37:28.276Z,5.93
2017-12-04T07:38:28.284Z,5.93
2017-12-04T07:39:28.300Z,5.93
2017-12-04T07:40:28.030Z,5.91
2017-12-04T07:41:28.309Z,5.98
2017-12-04T07:42:28.322Z,5.94
2017-12-04T07:43:28.335Z,5.98
2017-12-04T07:44:28.346Z,5.9
2017-12-04T07:45:28.355Z,5.86
2017-12-04T07:46:28.097Z,6.02
2017-12-04T07:47:28.375Z,6.02
2017-12-04T07:48:28.392Z,5.98
2017-12-04T07:49:28.403Z,5.99
2017-12-04T07:50:28.141Z,6.07
2017-12-04T07:51:28.151Z,6.02
2017-12-04T07:52:28.161Z,6.09
2017-12-04T07:53:28.442Z,6.04
2017-12-04T07:54:28.460Z,6.16
2017-12-04T07:55:28.195Z,6.12
2017-12-04T07:56:28.477Z,6.17
2017-12-04T07:57:28.485Z,6.2
2017-12-04T07:58:28.227Z,6.16
2017-12-04T07:59:28.504Z,6.19
2017-12-04T08:00:28.523Z,6.16
2017-12-04T08:01:28.529Z,6.19
2017-12-04T08:02:28.270Z,6.14
2017-12-04T08:03:28.548Z,6.16
2017-12-04T08:04:28.580Z,6.16
2017-12-04T08:05:28.570Z,6.17
2017-12-04T08:06:28.586Z,6.2
2017-12-04T08:07:28.598Z,6.09
2017-12-04T08:08:28.072Z,6.16
2017-12-04T08:09:28.633Z,6.16
2017-12-04T08:10:28.634Z,6.11
2017-12-04T08:11:28.639Z,6.11
2017-12-04T08:12:28.644Z,6.12
2017-12-04T08:13:28.666Z,6.19
2017-12-04T08:14:28.742Z,6.17
2017-12-04T08:15:28.688Z,6.17
2017-12-04T08:16:28.735Z,6.17
2017-12-04T08:17:28.708Z,6.22
2017-12-04T08:18:28.444Z,6.19
2017-12-04T08:19:28.738Z,6.11
2017-12-04T08:20:28.739Z,6.2
2017-12-04T08:21:28.491Z,6.19
2017-12-04T08:22:28.760Z,6.2
2017-12-04T08:23:28.512Z,6.19
2017-12-04T08:24:28.784Z,6.31
2017-12-04T08:25:28.809Z,6.31
2017-12-04T08:26:29.068Z,6.2
2017-12-04T08:27:28.835Z,6.26
2017-12-04T08:28:28.559Z,6.27
2017-12-04T08:29:28.842Z,6.26
2017-12-04T08:30:28.862Z,6.31
2017-12-04T08:31:28.864Z,6.26
2017-12-04T08:32:28.869Z,6.27
2017-12-04T08:33:28.617Z,6.28
2017-12-04T08:34:28.898Z,6.26
2017-12-04T08:35:28.912Z,6.3
2017-12-04T08:36:28.914Z,6.24
2017-12-04T08:37:28.930Z,6.33
2017-12-04T08:38:28.939Z,6.33
2017-12-04T08:39:28.951Z,6.33
2017-12-04T08:40:28.697Z,6.35
2017-12-04T08:41:28.704Z,6.35
2017-12-04T08:42:28.712Z,6.27
2017-12-04T08:43:28.996Z,6.36
2017-12-04T08:44:29.006Z,6.36
2017-12-04T08:45:28.751Z,6.31
2017-12-04T08:46:29.030Z,6.36
2017-12-04T08:47:29.043Z,6.41
2017-12-04T08:48:29.050Z,6.42
2017-12-04T08:49:29.061Z,6.49
2017-12-04T08:50:29.073Z,6.54
2017-12-04T08:51:29.090Z,6.48
2017-12-04T08:52:29.099Z,6.57
2017-12-04T08:53:29.150Z,6.54
2017-12-04T08:54:29.114Z,6.54
2017-12-04T08:55:28.859Z,6.54
2017-12-04T08:56:28.867Z,6.54
2017-12-04T08:57:29.149Z,6.56
2017-12-04T08:58:29.159Z,6.54
2017-12-04T08:59:29.181Z,6.48
2017-12-04T09:00:29.180Z,6.54
2017-12-04T09:01:29.194Z,6.52
2017-12-04T09:02:28.949Z,6.54
2017-12-04T09:03:29.214Z,6.6
2017-12-04T09:04:29.297Z,6.56
2017-12-04T09:05:29.241Z,6.57
2017-12-04T09:06:28.994Z,6.52
2017-12-04T09:07:29.262Z,6.6
2017-12-04T09:08:29.276Z,6.62
2017-12-04T09:09:28.755Z,6.64
2017-12-04T09:10:29.297Z,6.69
2017-12-04T09:11:29.312Z,6.67
2017-12-04T09:12:29.051Z,6.64
2017-12-04T09:13:29.330Z,6.64
2017-12-04T09:14:29.339Z,6.75
2017-12-04T09:15:29.350Z,6.63
2017-12-04T09:16:29.369Z,6.64
2017-12-04T09:17:29.377Z,6.56
2017-12-04T09:18:29.384Z,6.62
2017-12-04T09:19:29.397Z,6.66
2017-12-04T09:20:29.415Z,6.63
2017-12-04T09:21:29.151Z,6.66
2017-12-04T09:22:29.159Z,6.64
2017-12-04T09:23:28.907Z,6.67
2017-12-04T09:24:29.456Z,6.72
2017-12-04T09:25:29.472Z,6.72
2017-12-04T09:26:29.476Z,6.72
2017-12-04T09:27:29.482Z,6.7
2017-12-04T09:28:29.233Z,6.67
2017-12-04T09:29:29.241Z,6.7
2017-12-04T09:30:29.521Z,6.74
2017-12-04T09:31:29.538Z,6.77
2017-12-04T09:32:29.574Z,6.72
2017-12-04T09:33:29.556Z,6.77
2017-12-04T09:34:29.300Z,6.78
2017-12-04T09:35:29.577Z,6.82
2017-12-04T09:36:29.595Z,6.74
2017-12-04T09:37:29.608Z,6.77
2017-12-04T09:38:29.613Z,6.82
2017-12-04T09:39:29.624Z,6.79
2017-12-04T09:40:29.370Z,6.87
2017-12-04T09:41:29.385Z,6.85
2017-12-04T09:42:29.393Z,6.88
2017-12-04T09:43:29.409Z,6.89
2017-12-04T09:44:29.423Z,6.85
2017-12-04T09:45:29.697Z,6.84
2017-12-04T09:46:29.717Z,6.85
2017-12-04T09:47:29.185Z,6.95
2017-12-04T09:48:29.725Z,6.89
2017-12-04T09:49:29.474Z,6.87
2017-12-04T09:50:29.769Z,6.87
2017-12-04T09:51:29.766Z,6.96
2017-12-04T09:52:29.788Z,6.93
2017-12-04T09:53:29.788Z,6.95
2017-12-04T09:54:29.538Z,6.92
2017-12-04T09:55:29.807Z,6.97
2017-12-04T09:56:29.823Z,6.95
2017-12-04T09:57:29.853Z,6.92
2017-12-04T09:58:29.851Z,6.93
2017-12-04T09:59:29.321Z,6.92
2017-12-04T10:00:29.605Z,6.95
2017-12-04T10:01:29.346Z,7.06
2017-12-04T10:02:29.894Z,7.02
2017-12-04T10:03:29.904Z,6.92
2017-12-04T10:04:29.652Z,7.03
2017-12-04T10:05:29.392Z,7.11
2017-12-04T10:06:29.672Z,7.03
2017-12-04T10:07:29.948Z,7.02
2017-12-04T10:08:29.695Z,7
2017-12-04T10:09:29.977Z,7.05
2017-12-04T10:10:29.719Z,7.07
2017-12-04T10:11:30.009Z,7.1
2017-12-04T10:12:29.793Z,7.06
2017-12-04T10:13:30.024Z,7.07
2017-12-04T10:14:29.764Z,7.1
2017-12-04T10:15:30.065Z,7.07
2017-12-04T10:16:30.070Z,7.14
2017-12-04T10:17:29.802Z,7.17
2017-12-04T10:18:30.136Z,7.18
2017-12-04T10:19:29.557Z,7.14
2017-12-04T10:20:30.142Z,7.23
2017-12-04T10:21:30.128Z,7.23
2017-12-04T10:22:30.128Z,7.21
2017-12-04T10:23:30.140Z,7.2
2017-12-04T10:24:29.932Z,7.15
2017-12-04T10:25:30.169Z,7.2
2017-12-04T10:26:29.906Z,7.18
2017-12-04T10:27:30.182Z,7.21
2017-12-04T10:28:30.208Z,7.21
2017-12-04T10:29:30.209Z,7.35
2017-12-04T10:30:29.955Z,7.28
2017-12-04T10:31:29.967Z,7.32
2017-12-04T10:32:30.248Z,7.33
2017-12-04T10:33:30.253Z,7.31
2017-12-04T10:34:30.265Z,7.32
2017-12-04T10:35:30.283Z,7.47
2017-12-04T10:36:30.027Z,7.4
2017-12-04T10:37:30.303Z,7.45
2017-12-04T10:38:30.319Z,7.43
2017-12-04T10:39:30.061Z,7.43
2017-12-04T10:40:30.071Z,7.45
2017-12-04T10:41:30.358Z,7.5
2017-12-04T10:42:30.413Z,7.5
2017-12-04T10:43:30.378Z,7.48
2017-12-04T10:44:30.394Z,7.53
2017-12-04T10:45:30.396Z,7.51
2017-12-04T10:46:30.147Z,7.5
2017-12-04T10:47:30.425Z,7.51
2017-12-04T10:48:30.433Z,7.51
2017-12-04T10:49:30.455Z,7.6
2017-12-04T10:50:30.459Z,7.63
2017-12-04T10:51:30.473Z,7.58
2017-12-04T10:52:30.480Z,7.61
2017-12-04T10:53:30.502Z,7.66
2017-12-04T10:54:30.244Z,7.66
2017-12-04T10:55:30.521Z,7.66
2017-12-04T10:56:30.532Z,7.57
2017-12-04T10:57:30.550Z,7.61
2017-12-04T10:58:30.292Z,7.6
2017-12-04T10:59:30.568Z,7.54
2017-12-04T11:00:30.600Z,7.7
2017-12-04T11:01:30.593Z,7.58
2017-12-04T11:02:30.620Z,7.66
2017-12-04T11:03:30.621Z,7.63
2017-12-04T11:04:30.091Z,7.61
2017-12-04T11:05:30.376Z,7.67
2017-12-04T11:06:30.383Z,7.61
2017-12-04T11:07:30.399Z,7.6
2017-12-04T11:08:30.145Z,7.66
2017-12-04T11:09:30.688Z,7.63
2017-12-04T11:10:30.701Z,7.69
2017-12-04T11:11:30.918Z,7.69
2017-12-04T11:12:30.734Z,7.69
2017-12-04T11:13:30.737Z,7.67
2017-12-04T11:14:30.760Z,7.69
2017-12-04T11:15:30.495Z,7.73
2017-12-04T11:16:30.773Z,7.67
2017-12-04T11:17:30.786Z,7.75
2017-12-04T11:18:30.818Z,7.61
2017-12-04T11:19:30.812Z,7.69
2017-12-04T11:20:30.554Z,7.72
2017-12-04T11:21:30.839Z,7.73
2017-12-04T11:22:30.850Z,7.72
2017-12-04T11:23:30.596Z,7.67
2017-12-04T11:24:30.880Z,7.73
2017-12-04T11:25:30.884Z,7.7
2017-12-04T11:26:30.897Z,7.76
2017-12-04T11:27:30.639Z,7.75
2017-12-04T11:28:30.932Z,7.72
2017-12-04T11:29:30.673Z,7.7
2017-12-04T11:30:30.951Z,7.72
2017-12-04T11:31:30.965Z,7.7
2017-12-04T11:32:30.976Z,7.7
2017-12-04T11:33:30.984Z,7.72
2017-12-04T11:34:30.730Z,7.67
2017-12-04T11:35:31.007Z,7.75
2017-12-04T11:36:30.490Z,7.7
2017-12-04T11:37:30.774Z,7.8
2017-12-04T11:38:31.043Z,7.79
2017-12-04T11:39:31.056Z,7.75
2017-12-04T11:40:31.076Z,7.77
2017-12-04T11:41:31.092Z,7.79
2017-12-04T11:42:31.096Z,7.83
2017-12-04T11:43:31.105Z,7.79
2017-12-04T11:44:30.851Z,7.79
2017-12-04T11:45:30.865Z,7.77
2017-12-04T11:46:31.147Z,7.77
2017-12-04T11:47:30.890Z,7.91
2017-12-04T11:48:30.901Z,7.88
2017-12-04T11:49:31.177Z,7.8
2017-12-04T11:50:31.193Z,7.82
2017-12-04T11:51:31.212Z,7.9
2017-12-04T11:52:31.215Z,7.91
2017-12-04T11:53:30.981Z,7.9
2017-12-04T11:54:31.248Z,7.91
2017-12-04T11:55:31.259Z,7.85
2017-12-04T11:56:31.020Z,7.87
2017-12-04T11:57:31.022Z,7.97
2017-12-04T11:58:31.294Z,7.9
2017-12-04T11:59:31.037Z,7.95
2017-12-04T12:00:31.049Z,7.82
2017-12-04T12:01:31.335Z,7.83
2017-12-04T12:02:31.075Z,7.87
2017-12-04T12:03:31.360Z,7.83
2017-12-04T12:04:31.106Z,7.82
2017-12-04T12:05:31.109Z,7.88
2017-12-04T12:06:31.124Z,7.85
2017-12-04T12:07:31.137Z,7.93
2017-12-04T12:08:30.880Z,7.9
2017-12-04T12:09:31.437Z,7.88
2017-12-04T12:10:31.171Z,7.93
2017-12-04T12:11:31.452Z,7.93
2017-12-04T12:12:31.202Z,7.91
2017-12-04T12:13:31.215Z,7.93
2017-12-04T12:14:31.229Z,7.93
2017-12-04T12:15:30.970Z,7.87
2017-12-04T12:16:31.246Z,7.85
2017-12-04T12:17:31.259Z,7.9
2017-12-04T12:18:31.262Z,7.87
2017-12-04T12:19:31.539Z,7.79
2017-12-04T12:26:03.386Z,7.77
2017-12-04T12:27:03.383Z,7.75
2017-12-04T12:28:03.137Z,7.79
2017-12-04T12:29:03.413Z,7.82
2017-12-04T12:30:03.163Z,7.82
2017-12-04T12:31:03.434Z,7.88
2017-12-04T12:32:03.717Z,7.93
2017-12-04T12:33:03.456Z,7.87
2017-12-04T12:34:03.239Z,7.9
2017-12-04T12:35:03.751Z,7.93
2017-12-04T12:36:03.762Z,7.93
2017-12-04T12:37:03.507Z,7.87
2017-12-04T12:38:03.524Z,7.91
2017-12-04T12:39:03.802Z,7.87
2017-12-04T12:40:03.828Z,7.95
2017-12-04T12:41:03.565Z,7.94
2017-12-04T12:42:04.116Z,7.95
2017-12-04T12:43:03.589Z,7.95
2017-12-04T12:44:03.878Z,7.87
2017-12-04T12:45:03.888Z,7.91
2017-12-04T12:46:03.899Z,7.91
2017-12-04T12:47:03.641Z,7.9
2017-12-04T12:48:03.919Z,7.94
2017-12-04T12:49:03.936Z,8.01
2017-12-04T12:50:03.959Z,8.05
2017-12-04T12:51:03.695Z,7.97
2017-12-04T12:52:03.707Z,8
2017-12-04T12:53:03.714Z,8.01
2017-12-04T12:54:03.830Z,7.98
2017-12-04T12:55:03.736Z,7.95
2017-12-04T12:56:03.482Z,8.03
2017-12-04T12:57:04.035Z,7.98
2017-12-04T12:58:03.790Z,8.1
2017-12-04T12:59:04.059Z,8
2017-12-04T13:00:04.071Z,8.01
2017-12-04T13:01:04.082Z,7.98
2017-12-04T13:02:04.097Z,8.01
2017-12-04T13:03:04.113Z,8.19
2017-12-04T13:04:04.121Z,8.06
2017-12-04T13:05:03.600Z,7.98
2017-12-04T13:06:04.146Z,8.03
2017-12-04T13:07:04.156Z,8.03
2017-12-04T13:08:04.178Z,8.1
2017-12-04T13:09:04.284Z,8.12
2017-12-04T13:10:04.194Z,8.01
2017-12-04T13:11:03.941Z,8.1
2017-12-04T13:12:04.227Z,8.05
2017-12-04T13:13:03.967Z,8.01
2017-12-04T13:14:04.303Z,8.03
2017-12-04T13:15:03.996Z,8.05
2017-12-04T13:16:03.736Z,8.05
2017-12-04T13:17:04.288Z,8.13
2017-12-04T13:18:04.297Z,8.06
2017-12-04T13:19:04.322Z,8.06
2017-12-04T13:20:04.330Z,8.08
2017-12-04T13:21:04.335Z,8.01
2017-12-04T13:22:04.351Z,8.05
2017-12-04T13:23:04.362Z,7.97
2017-12-04T13:24:04.373Z,8.03
2017-12-04T13:25:04.412Z,8.05
2017-12-04T13:26:04.400Z,7.94